Time;durP1;ratioP1;P1;durP2;ratioP2;P2;SDS_P1;SDS_P2;PMS_P1;PMS_P2;Temp;Humidity;BMP_temperature;BMP_pressure;BME280_temperature;BME280_humidity;BME280_pressure;Samples;Min_cycle;Max_cycle;Signal;HPM_P1;HPM_P2
2023/03/02 00:00:58;;;;;;;12.93;7.38;;;;;;;1.63;69.02;102233.13;5014654;28;20127;-69
2023/03/02 00:03:24;;;;;;;9.18;6.95;;;;;;;1.62;68.58;102228.78;5014611;28;20025;-70
2023/03/02 00:05:50;;;;;;;9.98;7.55;;;;;;;1.62;68.53;102230.59;5032076;28;20033;-70
2023/03/02 00:08:17;;;;;;;9.40;7.10;;;;;;;1.58;68.55;102232.66;5032074;28;20128;-70
2023/03/02 00:10:43;;;;;;;11.13;7.05;;;;;;;1.62;68.58;102234.09;5032181;28;20029;-74
2023/03/02 00:13:09;;;;;;;10.48;7.07;;;;;;;1.59;69.41;102229.88;5031653;28;20033;-73
2023/03/02 00:15:38;;;;;;;9.82;6.93;;;;;;;1.54;68.32;102221.44;5026878;28;20045;-75
2023/03/02 00:18:03;;;;;;;10.90;7.15;;;;;;;1.59;68.32;102229.88;5011652;28;20029;-74
2023/03/02 00:20:28;;;;;;;10.90;7.07;;;;;;;1.54;68.64;102228.56;5011058;28;20021;-71
2023/03/02 00:22:54;;;;;;;11.27;7.07;;;;;;;1.52;69.42;102217.19;5012021;28;20026;-73
2023/03/02 00:25:19;;;;;;;9.15;6.60;;;;;;;1.53;68.86;102219.72;5017174;28;20045;-72
2023/03/02 00:27:44;;;;;;;11.07;6.80;;;;;;;1.52;69.70;102222.53;5030845;28;20072;-70
2023/03/02 00:30:12;;;;;;;9.93;6.78;;;;;;;1.53;68.87;102230.41;5029040;28;20025;-74
2023/03/02 00:32:38;;;;;;;11.52;7.30;;;;;;;1.50;69.61;102227.16;5023654;28;20473;-75
2023/03/02 00:35:04;;;;;;;10.65;6.75;;;;;;;1.50;68.49;102228.00;5014059;28;20060;-73
2023/03/02 00:37:29;;;;;;;13.88;7.15;;;;;;;1.42;68.91;102228.66;5012884;28;20436;-69
2023/03/02 00:39:54;;;;;;;10.23;6.90;;;;;;;1.46;69.48;102229.22;5031128;28;20041;-71
2023/03/02 00:42:20;;;;;;;10.38;7.10;;;;;;;1.49;69.21;102234.28;5031312;28;20065;-73
2023/03/02 00:44:46;;;;;;;9.10;7.18;;;;;;;1.45;69.42;102235.56;5031862;28;20033;-72
2023/03/02 00:47:12;;;;;;;10.10;6.88;;;;;;;1.41;69.57;102234.97;5020018;28;20462;-70
2023/03/02 00:49:37;;;;;;;11.45;6.95;;;;;;;1.44;68.97;102233.03;5013639;28;20421;-74
2023/03/02 00:52:03;;;;;;;10.35;7.05;;;;;;;1.42;69.77;102235.81;5021035;28;20045;-72
2023/03/02 00:54:29;;;;;;;11.05;7.05;;;;;;;1.38;69.51;102223.72;5034352;28;20030;-72
2023/03/02 00:56:54;;;;;;;11.15;7.00;;;;;;;1.37;69.78;102220.19;5035064;28;20026;-74
2023/03/02 00:59:25;;;;;;;10.05;7.43;;;;;;;1.40;70.22;102229.75;5035145;28;20029;-72
2023/03/02 01:01:57;;;;;;;10.02;6.82;;;;;;;1.44;69.89;102228.53;5021602;28;20104;-68
2023/03/02 01:04:33;;;;;;;10.82;7.32;;;;;;;1.40;70.44;102224.41;5014072;28;20038;-74
2023/03/02 01:07:01;;;;;;;8.70;6.95;;;;;;;1.36;69.62;102220.31;5015377;28;20424;-74
2023/03/02 01:09:27;;;;;;;9.98;7.18;;;;;;;1.30;69.63;102218.16;5015106;28;20040;-73
2023/03/02 01:11:53;;;;;;;11.30;6.93;;;;;;;1.34;69.75;102222.28;5026704;28;20498;-70
2023/03/02 01:14:18;;;;;;;12.27;7.35;;;;;;;1.31;70.21;102217.19;5017122;28;20112;-72
2023/03/02 01:16:44;;;;;;;13.50;7.20;;;;;;;1.32;70.04;102210.91;5033730;28;20029;-68
2023/03/02 01:19:09;;;;;;;10.40;7.97;;;;;;;1.30;70.26;102208.38;5025638;28;20489;-70
2023/03/02 01:21:35;;;;;;;11.32;7.93;;;;;;;1.36;69.78;102212.31;5015429;28;20030;-74
2023/03/02 01:24:01;;;;;;;11.75;7.10;;;;;;;1.24;70.19;102199.06;5014822;28;20034;-70
2023/03/02 01:26:26;;;;;;;11.15;7.13;;;;;;;1.23;70.23;102197.34;4982668;28;20061;-70
2023/03/02 01:28:54;;;;;;;11.02;7.40;;;;;;;1.22;71.04;102202.81;5007672;28;20049;-70
2023/03/02 01:31:21;;;;;;;11.52;7.57;;;;;;;1.18;71.19;102209.41;5014746;28;20125;-74
2023/03/02 01:33:46;;;;;;;10.60;7.10;;;;;;;1.16;71.95;102203.34;5007303;28;20511;-72
2023/03/02 01:36:11;;;;;;;9.98;6.93;;;;;;;1.15;71.93;102199.84;4995118;28;20109;-73
2023/03/02 01:38:37;;;;;;;10.32;7.65;;;;;;;1.15;71.26;102201.69;4977671;28;20121;-75
2023/03/02 01:41:02;;;;;;;11.80;7.00;;;;;;;1.13;71.92;102201.78;4995227;28;20050;-69
2023/03/02 01:43:28;;;;;;;11.27;7.50;;;;;;;1.09;72.07;102189.69;4995066;28;20030;-71
2023/03/02 01:45:55;;;;;;;12.50;7.82;;;;;;;1.08;72.71;102198.66;4977584;28;20027;-70
2023/03/02 01:48:46;;;;;;;12.73;7.57;;;;;;;1.11;72.84;102185.06;4993341;28;20039;-72
2023/03/02 01:51:17;;;;;;;10.55;7.05;;;;;;;1.07;72.21;102188.97;4975301;28;20031;-74
2023/03/02 01:53:48;;;;;;;10.65;7.40;;;;;;;1.08;72.48;102188.00;4975987;28;20084;-71
2023/03/02 01:56:21;;;;;;;9.45;7.28;;;;;;;1.05;72.21;102188.25;4994560;28;20100;-73
2023/03/02 01:58:53;;;;;;;11.80;7.72;;;;;;;1.06;72.76;102190.78;4994158;28;20033;-71
2023/03/02 02:01:18;;;;;;;14.10;7.82;;;;;;;1.03;72.96;102187.56;4973849;28;20046;-69
2023/03/02 02:03:48;;;;;;;10.48;7.75;;;;;;;0.95;73.95;102188.19;5012523;28;20057;-72
2023/03/02 02:06:24;;;;;;;10.68;7.90;;;;;;;0.97;73.73;102180.91;4983292;28;20034;-74
2023/03/02 02:08:53;;;;;;;11.32;7.60;;;;;;;0.96;73.28;102183.72;4994071;28;20042;-72
2023/03/02 02:11:18;;;;;;;10.57;7.85;;;;;;;0.94;74.23;102183.84;4994162;28;20447;-70
2023/03/02 02:13:44;;;;;;;13.57;7.93;;;;;;;0.96;74.42;102181.03;4994326;28;20101;-71
2023/03/02 02:16:10;;;;;;;10.32;7.85;;;;;;;0.93;74.75;102187.47;4994334;28;20040;-70
2023/03/02 02:18:38;;;;;;;12.75;7.90;;;;;;;0.90;74.97;102184.22;4994698;28;20038;-71
2023/03/02 02:21:04;;;;;;;10.65;7.70;;;;;;;0.87;75.45;102174.66;4992339;28;20413;-71
2023/03/02 02:23:44;;;;;;;12.80;8.50;;;;;;;0.83;76.54;102178.53;5013673;28;20029;-71
2023/03/02 02:26:19;;;;;;;11.23;8.57;;;;;;;0.82;76.22;102179.53;5025896;28;20045;-71
2023/03/02 02:28:57;;;;;;;10.30;7.55;;;;;;;0.84;76.84;102173.09;5033720;28;20032;-72
2023/03/02 02:31:29;;;;;;;12.10;8.20;;;;;;;0.78;77.47;102176.25;5033275;28;20036;-72
2023/03/02 02:34:03;;;;;;;11.88;8.10;;;;;;;0.81;77.24;102173.34;5015732;28;20057;-71
2023/03/02 02:36:34;;;;;;;11.85;7.55;;;;;;;0.67;79.28;102171.84;5030276;28;20522;-73
2023/03/02 02:39:03;;;;;;;14.05;7.75;;;;;;;0.67;79.08;102163.84;5032192;28;20030;-74
2023/03/02 02:41:33;;;;;;;10.93;8.27;;;;;;;0.66;79.05;102158.63;5032914;28;20212;-73
2023/03/02 02:43:59;;;;;;;12.48;8.18;;;;;;;0.68;79.99;102159.34;5033130;28;20034;-71
2023/03/02 02:46:24;;;;;;;12.75;8.63;;;;;;;0.65;79.99;102157.81;5033049;28;20392;-70
2023/03/02 02:48:50;;;;;;;14.55;9.13;;;;;;;0.62;81.62;102155.41;5015796;28;20044;-71
2023/03/02 02:51:26;;;;;;;14.50;8.65;;;;;;;0.66;82.33;102151.47;5022255;28;20034;-68
2023/03/02 02:53:58;;;;;;;14.23;9.75;;;;;;;0.60;82.87;102152.00;5013512;28;20040;-70
2023/03/02 02:56:30;;;;;;;14.73;9.43;;;;;;;0.51;84.46;102147.44;5013104;28;20030;-71
2023/03/02 02:58:58;;;;;;;;;;;;;;;0.77;80.05;102145.28;5027258;28;20087;-71
2023/03/02 03:01:24;;;;;;;17.55;9.95;;;;;;;0.60;85.71;102153.81;5003294;28;19917;-73
2023/03/02 03:03:56;;;;;;;16.42;10.55;;;;;;;0.56;87.85;102160.38;5033323;28;20536;-70
2023/03/02 03:06:26;;;;;;;;;;;;;;;0.72;81.13;102158.13;5033267;28;20108;-70
2023/03/02 03:08:54;;;;;;;18.85;11.95;;;;;;;0.52;88.42;102160.63;5022258;28;19963;-72
2023/03/02 03:11:23;;;;;;;16.30;11.50;;;;;;;0.51;91.01;102163.41;5012480;28;20440;-70
2023/03/02 03:14:08;;;;;;;18.42;12.60;;;;;;;0.51;92.30;102155.44;5009475;28;20033;-71
2023/03/02 03:16:36;;;;;;;18.23;12.80;;;;;;;0.45;94.62;102155.94;5032981;28;20088;-70
2023/03/02 03:19:29;;;;;;;19.40;13.82;;;;;;;0.46;95.16;102152.31;5032437;28;20064;-74
2023/03/02 03:21:58;;;;;;;19.55;13.93;;;;;;;0.44;97.16;102155.09;5030688;28;20091;-72
2023/03/02 03:24:25;;;;;;;19.50;14.73;;;;;;;0.31;100.00;102157.06;5015367;28;20091;-74
2023/03/02 03:26:53;;;;;;;22.52;16.55;;;;;;;0.32;100.00;102148.13;5013021;28;20136;-73
2023/03/02 03:29:18;;;;;;;23.45;17.48;;;;;;;0.31;100.00;102147.25;4994881;28;20441;-72
2023/03/02 03:31:44;;;;;;;23.83;18.20;;;;;;;0.30;100.00;102142.06;4997473;28;20037;-71
2023/03/02 03:34:09;;;;;;;25.13;18.00;;;;;;;0.35;100.00;102140.72;5032591;28;20097;-70
2023/03/02 03:36:36;;;;;;;26.20;19.23;;;;;;;0.36;100.00;102130.91;5032365;28;20480;-71
2023/03/02 03:39:04;;;;;;;26.55;19.48;;;;;;;0.31;100.00;102135.78;5016522;28;20072;-72
2023/03/02 03:41:30;;;;;;;28.02;20.30;;;;;;;0.32;100.00;102143.63;5012838;28;20045;-70
2023/03/02 03:43:55;;;;;;;28.58;21.42;;;;;;;0.32;100.00;102137.47;5012931;28;20038;-72
2023/03/02 03:46:21;;;;;;;30.65;21.52;;;;;;;0.31;100.00;102138.44;5012489;28;20038;-70
2023/03/02 03:48:46;;;;;;;31.83;24.38;;;;;;;0.33;100.00;102141.81;5010513;28;20041;-70
2023/03/02 03:51:12;;;;;;;33.22;24.30;;;;;;;0.33;100.00;102139.13;5028861;28;20040;-71
2023/03/02 03:53:37;;;;;;;31.77;24.40;;;;;;;0.40;100.00;102151.00;5031979;28;20021;-72
2023/03/02 03:56:03;;;;;;;31.73;23.42;;;;;;;0.32;100.00;102143.63;5032037;28;20089;-73
2023/03/02 03:58:29;;;;;;;34.97;24.40;;;;;;;0.32;100.00;102148.97;5032347;28;20457;-74
2023/03/02 04:00:55;;;;;;;38.17;25.80;;;;;;;0.31;100.00;102157.06;5028892;28;20057;-73
2023/03/02 04:03:21;;;;;;;36.90;26.35;;;;;;;0.29;100.00;102156.38;5031870;28;20069;-69
2023/03/02 04:05:47;;;;;;;36.63;26.27;;;;;;;0.25;100.00;102154.91;5029446;28;20040;-72
2023/03/02 04:08:12;;;;;;;41.80;27.55;;;;;;;0.21;100.00;102145.47;5029459;28;20026;-71
2023/03/02 04:10:38;;;;;;;38.05;27.50;;;;;;;0.23;100.00;102152.38;5031418;28;20045;-71
2023/03/02 04:13:03;;;;;;;36.85;26.13;;;;;;;0.28;100.00;102152.00;5031894;28;20112;-70
2023/03/02 04:15:29;;;;;;;36.55;27.17;;;;;;;0.29;100.00;102146.53;5023208;28;20032;-69
2023/03/02 04:17:54;;;;;;;41.85;27.88;;;;;;;0.28;100.00;102149.34;4994854;28;20113;-72
2023/03/02 04:20:20;;;;;;;37.22;26.52;;;;;;;0.35;100.00;102146.03;5011836;28;20030;-69
2023/03/02 04:22:48;;;;;;;34.97;26.85;;;;;;;0.28;100.00;102147.50;5016476;28;20045;-74
2023/03/02 04:25:18;;;;;;;35.75;26.92;;;;;;;0.27;100.00;102140.50;5035610;28;20136;-75
2023/03/02 04:27:45;;;;;;;38.50;28.58;;;;;;;0.28;100.00;102146.69;5018073;28;20387;-68
2023/03/02 04:30:11;;;;;;;38.05;26.83;;;;;;;0.29;100.00;102145.72;5033713;28;20037;-74
2023/03/02 04:32:37;;;;;;;37.05;29.13;;;;;;;0.27;100.00;102147.63;5034036;28;20029;-70
2023/03/02 04:35:02;;;;;;;37.15;27.80;;;;;;;0.27;100.00;102139.66;5034748;28;20080;-74
2023/03/02 04:37:28;;;;;;;35.90;27.80;;;;;;;0.24;100.00;102148.75;5035204;28;20056;-73
2023/03/02 04:39:53;;;;;;;36.58;28.10;;;;;;;0.23;100.00;102148.84;5033387;28;20042;-72
2023/03/02 04:42:19;;;;;;;36.85;26.55;;;;;;;0.23;100.00;102148.84;5035108;28;20034;-73
2023/03/02 04:44:45;;;;;;;39.00;29.13;;;;;;;0.14;100.00;102143.31;5034822;28;20037;-68
2023/03/02 04:47:11;;;;;;;39.42;28.98;;;;;;;0.15;100.00;102142.34;5016862;28;20022;-70
2023/03/02 04:49:36;;;;;;;40.78;27.15;;;;;;;0.15;100.00;102139.69;5023268;28;20041;-72
2023/03/02 04:52:02;;;;;;;37.92;28.65;;;;;;;0.16;100.00;102146.69;5035527;28;20358;-73
2023/03/02 04:54:27;;;;;;;35.67;25.90;;;;;;;0.17;100.00;102145.72;5035487;28;20033;-71
2023/03/02 04:56:53;;;;;;;38.65;27.10;;;;;;;0.14;100.00;102151.28;5035406;28;20112;-72
2023/03/02 04:59:22;;;;;;;36.83;25.95;;;;;;;0.10;100.00;102143.69;5035184;28;20112;-70
2023/03/02 05:01:48;;;;;;;39.03;27.05;;;;;;;0.13;100.00;102143.44;5030607;28;20172;-74
2023/03/02 05:04:14;;;;;;;36.47;27.95;;;;;;;0.13;100.00;102138.13;5024582;28;20389;-70
2023/03/02 05:06:39;;;;;;;36.45;26.60;;;;;;;0.16;100.00;102148.50;5014871;28;20037;-70
2023/03/02 05:09:05;;;;;;;40.92;26.27;;;;;;;0.19;100.00;102152.75;5007459;28;20025;-72
2023/03/02 05:11:31;;;;;;;38.65;27.20;;;;;;;0.16;100.00;102153.84;5034626;28;20029;-70
2023/03/02 05:14:00;;;;;;;36.83;25.20;;;;;;;0.14;100.00;102156.63;5017361;28;20047;-70
2023/03/02 05:16:27;;;;;;;36.78;27.27;;;;;;;0.11;100.00;102153.38;5033418;28;20408;-72
2023/03/02 05:18:53;;;;;;;35.95;26.50;;;;;;;0.09;100.00;102147.31;5025630;28;20109;-73
2023/03/02 05:21:19;;;;;;;37.05;26.42;;;;;;;0.10;100.00;102149.00;5033293;28;20109;-68
2023/03/02 05:23:44;;;;;;;35.47;26.13;;;;;;;0.11;100.00;102156.88;5034666;28;20492;-71
2023/03/02 05:26:10;;;;;;;38.17;27.65;;;;;;;0.04;100.00;102154.84;5034761;28;20491;-71
2023/03/02 05:28:36;;;;;;;36.72;28.30;;;;;;;-0.02;100.00;102150.84;5034332;28;20472;-71
2023/03/02 05:31:02;;;;;;;39.67;28.73;;;;;;;-0.05;100.00;102143.09;5032289;28;20036;-74
2023/03/02 05:33:28;;;;;;;42.50;29.20;;;;;;;-0.02;100.00;102151.69;5026322;28;20030;-69
2023/03/02 05:35:53;;;;;;;40.50;29.70;;;;;;;-0.07;100.00;102150.38;5014478;28;20041;-72
2023/03/02 05:38:19;;;;;;;41.28;29.17;;;;;;;-0.02;100.00;102145.53;5029492;28;20091;-71
2023/03/02 05:40:44;;;;;;;44.92;31.10;;;;;;;-0.03;100.00;102151.81;5014773;28;20053;-68
2023/03/02 05:43:14;;;;;;;41.72;28.63;;;;;;;-0.03;100.00;102152.66;5014367;28;20034;-73
2023/03/02 05:45:39;;;;;;;44.90;30.17;;;;;;;-0.03;100.00;102150.00;5014373;28;20611;-69
2023/03/02 05:48:05;;;;;;;41.35;31.52;;;;;;;-0.08;100.00;102152.16;5018669;28;20127;-71
2023/03/02 05:50:31;;;;;;;40.88;29.83;;;;;;;-0.07;100.00;102155.69;5034199;28;20120;-70
2023/03/02 05:52:58;;;;;;;45.20;30.77;;;;;;;-0.08;100.00;102146.84;5013857;28;20453;-71
2023/03/02 05:55:24;;;;;;;44.20;28.80;;;;;;;-0.07;100.00;102153.03;5034121;28;20033;-71
2023/03/02 05:57:50;;;;;;;43.70;33.03;;;;;;;-0.11;100.00;102140.94;5034301;28;20033;-72
2023/03/02 06:00:17;;;;;;;45.22;32.83;;;;;;;-0.14;100.00;102141.19;5034204;28;20033;-72
2023/03/02 06:02:42;;;;;;;45.50;30.08;;;;;;;-0.15;100.00;102145.69;5030519;28;20111;-72
2023/03/02 06:05:14;;;;;;;45.78;32.42;;;;;;;-0.13;100.00;102158.84;5032418;28;20112;-67
2023/03/02 06:07:40;;;;;;;51.25;32.67;;;;;;;-0.12;100.00;102147.22;5033853;28;20036;-71
2023/03/02 06:10:06;;;;;;;46.78;32.08;;;;;;;-0.16;100.00;102140.47;5033385;28;20033;-72
2023/03/02 06:12:32;;;;;;;47.80;33.78;;;;;;;-0.21;100.00;102143.50;5015976;28;20484;-73
2023/03/02 06:14:58;;;;;;;46.42;31.95;;;;;;;-0.19;100.00;102134.41;5016210;28;20080;-73
2023/03/02 06:17:24;;;;;;;47.50;32.78;;;;;;;-0.20;100.00;102139.84;5033431;28;20085;-73
2023/03/02 06:19:49;;;;;;;47.10;32.88;;;;;;;-0.21;100.00;102147.00;5028605;28;20489;-73
2023/03/02 06:22:15;;;;;;;54.00;35.13;;;;;;;-0.21;100.00;102143.50;5033864;28;20096;-75
2023/03/02 06:24:43;;;;;;;49.35;32.10;;;;;;;-0.26;100.00;102149.16;5033144;28;20477;-71
2023/03/02 06:27:09;;;;;;;51.08;33.13;;;;;;;-0.25;100.00;102152.69;5033717;28;20099;-73
2023/03/02 06:29:34;;;;;;;48.88;34.08;;;;;;;-0.30;100.00;102161.03;5030482;28;20037;-68
2023/03/02 06:31:59;;;;;;;49.60;32.55;;;;;;;-0.27;100.00;102155.47;5033347;28;20029;-70
2023/03/02 06:34:28;;;;;;;49.50;34.97;;;;;;;-0.32;100.00;102162.13;5032078;28;20096;-74
2023/03/02 06:36:54;;;;;;;50.78;31.70;;;;;;;-0.33;100.00;102157.75;5031988;28;20100;-71
2023/03/02 06:39:19;;;;;;;50.25;32.42;;;;;;;-0.30;100.00;102158.38;5014299;28;20141;-68
2023/03/02 06:41:49;;;;;;;52.28;33.58;;;;;;;-0.25;100.00;102155.34;5031922;28;20045;-74
2023/03/02 06:44:15;;;;;;;50.10;32.20;;;;;;;-0.32;100.00;102165.63;5032042;28;20086;-72
2023/03/02 06:46:41;;;;;;;53.85;33.92;;;;;;;-0.31;100.00;102169.97;5032728;28;20034;-71
2023/03/02 06:49:07;;;;;;;54.10;32.53;;;;;;;-0.27;100.00;102173.22;5033396;28;20459;-73
2023/03/02 06:51:33;;;;;;;51.38;33.30;;;;;;;-0.27;100.00;102178.53;5025232;28;20044;-70
2023/03/02 06:53:59;;;;;;;47.15;31.52;;;;;;;-0.27;100.00;102168.78;5011866;28;20130;-72
2023/03/02 06:56:24;;;;;;;54.30;33.35;;;;;;;-0.29;100.00;102165.38;5031647;28;20084;-73
2023/03/02 06:58:49;;;;;;;54.25;34.70;;;;;;;-0.24;100.00;102172.97;5033090;28;20107;-74
2023/03/02 07:01:15;;;;;;;51.40;31.92;;;;;;;-0.22;100.00;102177.22;5029666;28;20049;-69
2023/03/02 07:03:40;;;;;;;51.00;34.15;;;;;;;-0.25;100.00;102173.97;5032562;28;20519;-71
2023/03/02 07:06:06;;;;;;;53.22;32.40;;;;;;;-0.22;100.00;102174.56;5032961;28;20052;-72
2023/03/02 07:08:32;;;;;;;51.60;32.20;;;;;;;-0.23;100.00;102177.34;5008632;28;20040;-74
2023/03/02 07:10:57;;;;;;;57.00;35.58;;;;;;;-0.24;100.00;102181.84;5032985;28;20116;-71
2023/03/02 07:13:23;;;;;;;54.30;32.60;;;;;;;-0.20;100.00;102185.09;5015281;28;20401;-72
2023/03/02 07:15:48;;;;;;;76.38;49.60;;;;;;;-0.23;100.00;102180.88;5032280;28;20029;-70
2023/03/02 07:18:13;;;;;;;67.85;40.97;;;;;;;-0.13;100.00;102182.81;5032541;28;20029;-70
2023/03/02 07:20:39;;;;;;;54.35;33.15;;;;;;;-0.13;100.00;102186.31;5032614;28;20032;-71
2023/03/02 07:23:05;;;;;;;51.85;34.88;;;;;;;-0.12;100.00;102188.00;5019864;28;20034;-70
2023/03/02 07:25:31;;;;;;;65.75;40.95;;;;;;;-0.09;100.00;102184.22;5002784;28;20061;-70
2023/03/02 07:27:57;;;;;;;49.63;32.67;;;;;;;-0.06;100.00;102178.66;4991648;28;20037;-69
2023/03/02 07:30:22;;;;;;;47.65;30.25;;;;;;;-0.03;100.00;102191.72;5029900;28;20029;-73
2023/03/02 07:32:48;;;;;;;48.38;32.28;;;;;;;-0.03;100.00;102186.41;5026421;28;20100;-72
2023/03/02 07:35:13;;;;;;;50.83;30.88;;;;;;;0.06;100.00;102185.69;5009568;28;20037;-73
2023/03/02 07:37:39;;;;;;;56.08;34.10;;;;;;;0.10;100.00;102184.44;5008013;28;20030;-74
2023/03/02 07:40:06;;;;;;;51.95;31.50;;;;;;;0.14;100.00;102183.25;5019075;28;20033;-70
2023/03/02 07:42:32;;;;;;;51.03;31.10;;;;;;;0.19;100.00;102184.69;5014091;28;20033;-73
2023/03/02 07:44:57;;;;;;;48.88;31.08;;;;;;;0.19;100.00;102182.03;5032411;28;20029;-70
2023/03/02 07:47:23;;;;;;;48.75;33.30;;;;;;;0.22;100.00;102184.44;5032479;28;20029;-74
2023/03/02 07:49:48;;;;;;;50.67;33.45;;;;;;;0.23;100.00;102180.78;5027164;28;20033;-74
2023/03/02 07:52:14;;;;;;;49.83;31.02;;;;;;;0.36;100.00;102186.81;5014655;28;20029;-74
2023/03/02 07:54:41;;;;;;;50.88;31.30;;;;;;;0.36;100.00;102181.50;5032126;28;20025;-71
2023/03/02 07:57:07;;;;;;;53.83;33.88;;;;;;;0.38;100.00;102179.56;5015447;28;20041;-71
2023/03/02 07:59:32;;;;;;;47.25;30.25;;;;;;;0.42;100.00;102188.97;5033326;28;20021;-73
2023/03/02 08:01:57;;;;;;;49.60;31.13;;;;;;;0.43;100.00;102182.69;5029926;28;20052;-72
2023/03/02 08:04:25;;;;;;;51.33;33.30;;;;;;;0.43;100.00;102176.53;5030813;28;20034;-73
2023/03/02 08:06:51;;;;;;;49.15;33.42;;;;;;;0.45;100.00;102190.56;5016349;28;20022;-72
2023/03/02 08:09:16;;;;;;;48.83;32.53;;;;;;;0.53;100.00;102180.97;5031191;28;20034;-76
2023/03/02 08:11:42;;;;;;;47.42;31.30;;;;;;;0.56;100.00;102179.00;5014919;28;20029;-75
2023/03/02 08:14:07;;;;;;;44.13;30.25;;;;;;;0.60;100.00;102185.78;5015158;28;20033;-75
2023/03/02 08:16:32;;;;;;;47.00;29.33;;;;;;;0.63;100.00;102185.53;5018830;28;20026;-76
2023/03/02 08:18:58;;;;;;;45.92;31.10;;;;;;;0.68;100.00;102186.84;5013466;28;20116;-74
2023/03/02 08:21:25;;;;;;;47.97;29.98;;;;;;;0.76;100.00;102180.06;5036076;28;20057;-74
2023/03/02 08:23:51;;;;;;;43.50;28.70;;;;;;;0.80;100.00;102184.13;5018086;28;20381;-76
2023/03/02 08:26:18;;;;;;;45.50;29.88;;;;;;;0.83;100.00;102183.88;5035582;28;20046;-73
2023/03/02 08:28:43;;;;;;;45.13;30.23;;;;;;;0.88;100.00;102177.19;5034029;28;20026;-76
2023/03/02 08:31:09;;;;;;;42.65;29.38;;;;;;;0.92;100.00;102193.78;5018114;28;20021;-74
2023/03/02 08:33:35;;;;;;;44.22;29.17;;;;;;;0.96;100.00;102184.53;5018896;28;20030;-73
2023/03/02 08:36:07;;;;;;;44.33;29.90;;;;;;;1.02;100.00;102183.19;5014988;28;20115;-75
2023/03/02 08:38:34;;;;;;;;;;;;;;;1.18;100.00;102194.25;5015990;28;20113;-76
2023/03/02 08:41:03;;;;;;;43.70;26.83;;;;;;;1.14;100.00;102189.31;5015651;28;19909;-75
2023/03/02 08:43:29;;;;;;;42.08;27.80;;;;;;;1.14;100.00;102187.47;5015673;28;20052;-74
2023/03/02 08:45:58;;;;;;;39.78;27.55;;;;;;;1.19;100.00;102190.63;5017911;28;20034;-75
2023/03/02 08:48:25;;;;;;;41.95;26.88;;;;;;;1.24;100.00;102188.38;5034260;28;20037;-77
2023/03/02 08:50:57;;;;;;;39.40;26.50;;;;;;;1.30;100.00;102184.38;5017619;28;20029;-80
2023/03/02 08:53:26;;;;;;;38.20;25.60;;;;;;;1.35;100.00;102187.47;5017370;28;20033;-76
2023/03/02 08:55:51;;;;;;;36.20;24.92;;;;;;;1.38;100.00;102181.88;5014980;28;20037;-74
2023/03/02 08:58:17;;;;;;;38.20;25.50;;;;;;;1.51;100.00;102183.47;5017475;28;20032;-76
2023/03/02 09:00:43;;;;;;;35.58;25.05;;;;;;;1.58;100.00;102185.47;5000766;28;20112;-75
2023/03/02 09:03:08;;;;;;;36.33;24.08;;;;;;;1.63;100.00;102178.91;5032750;28;20107;-76
2023/03/02 09:05:34;;;;;;;35.40;24.27;;;;;;;1.68;100.00;102169.53;5033592;28;20480;-74
2023/03/02 09:08:00;;;;;;;37.47;23.58;;;;;;;1.75;100.00;102170.69;5034427;28;20548;-73
2023/03/02 09:10:25;;;;;;;34.33;23.02;;;;;;;1.85;100.00;102170.72;5016415;28;20041;-77
2023/03/02 09:12:51;;;;;;;36.03;23.70;;;;;;;1.91;100.00;102166.66;5017135;28;20465;-76
2023/03/02 09:15:16;;;;;;;35.38;22.88;;;;;;;1.99;100.00;102164.16;5029164;28;20065;-75
2023/03/02 09:17:47;;;;;;;33.28;23.02;;;;;;;2.07;100.00;102163.50;5011256;28;20038;-75
2023/03/02 09:20:36;;;;;;;35.97;25.90;;;;;;;2.16;100.00;102165.34;5032514;28;20095;-74
2023/03/02 09:23:02;;;;;;;33.53;23.02;;;;;;;2.20;98.59;102169.41;4992462;28;20074;-75
2023/03/02 09:25:28;;;;;;;36.38;24.50;;;;;;;2.27;95.34;102175.06;5026992;28;20088;-74
2023/03/02 09:27:53;;;;;;;38.13;25.55;;;;;;;2.37;98.69;102169.72;5034735;28;20504;-74
2023/03/02 09:30:19;;;;;;;37.92;25.15;;;;;;;2.46;94.46;102177.75;5017157;28;20038;-74
2023/03/02 09:32:44;;;;;;;31.60;21.83;;;;;;;2.54;92.40;102166.38;5030407;28;20038;-75
2023/03/02 09:35:10;;;;;;;28.77;19.80;;;;;;;2.58;90.26;102164.25;5034729;28;20030;-73
2023/03/02 09:37:37;;;;;;;32.90;20.83;;;;;;;2.64;88.97;102166.38;5034229;28;20036;-72
2023/03/02 09:40:04;;;;;;;30.83;20.55;;;;;;;2.67;86.77;102160.75;5034666;28;20026;-74
2023/03/02 09:42:41;;;;;;;38.30;22.73;;;;;;;2.77;88.33;102174.13;5034443;28;20029;-73
2023/03/02 09:45:28;;;;;;;32.60;20.75;;;;;;;2.86;88.92;102175.09;5033316;28;20037;-76
2023/03/02 09:48:31;;;;;;;46.10;31.25;;;;;;;2.92;88.53;102162.00;5006274;28;20034;-77
2023/03/02 09:51:31;;;;;;;33.33;23.15;;;;;;;2.98;83.69;102155.25;5013345;28;20049;-76
2023/03/02 09:54:07;;;;;;;29.60;19.73;;;;;;;3.10;83.07;102159.44;4995233;28;20250;-76
2023/03/02 09:56:37;;;;;;;31.10;19.60;;;;;;;3.11;78.80;102169.16;5011006;28;20061;-74
2023/03/02 09:59:23;;;;;;;29.58;19.30;;;;;;;3.20;82.04;102162.09;5032040;28;20037;-73
2023/03/02 10:02:00;;;;;;;28.33;19.10;;;;;;;3.27;81.37;102155.19;5011500;28;20052;-74
2023/03/02 10:04:47;;;;;;;28.05;18.63;;;;;;;3.36;80.68;102153.47;5032640;28;20574;-76
2023/03/02 10:07:16;;;;;;;26.65;18.40;;;;;;;3.47;77.73;102153.31;5022834;28;20018;-76
2023/03/02 10:09:42;;;;;;;26.30;17.30;;;;;;;3.57;76.19;102155.94;5013763;28;20088;-74
2023/03/02 10:12:33;;;;;;;26.23;17.65;;;;;;;3.61;76.88;102160.03;5013014;28;20030;-74
2023/03/02 10:15:08;;;;;;;25.52;17.58;;;;;;;3.73;76.53;102153.50;5013926;28;20060;-76
2023/03/02 10:18:12;;;;;;;25.02;17.08;;;;;;;3.81;77.13;102151.91;5013721;28;20116;-77
2023/03/02 10:20:47;;;;;;;28.05;17.85;;;;;;;3.93;73.49;102152.56;5012938;28;20057;-76
2023/03/02 10:23:44;;;;;;;24.20;16.83;;;;;;;4.00;74.01;102159.84;4996206;28;20033;-76
2023/03/02 10:26:16;;;;;;;24.65;16.92;;;;;;;4.02;70.55;102160.53;4992130;28;20401;-74
2023/03/02 10:29:14;;;;;;;28.55;18.27;;;;;;;4.15;71.83;102154.84;5013641;28;20462;-75
2023/03/02 10:31:40;;;;;;;29.05;17.08;;;;;;;4.22;69.14;102152.38;5013217;28;20034;-74
2023/03/02 10:34:10;;;;;;;23.17;15.20;;;;;;;4.30;67.31;102151.63;4998515;28;20086;-76
2023/03/02 10:36:42;;;;;;;22.17;15.32;;;;;;;4.40;66.53;102147.03;5002668;28;20308;-73
2023/03/02 10:39:16;;;;;;;23.20;14.32;;;;;;;4.47;66.75;102157.97;5001474;28;20037;-74
2023/03/02 10:42:01;;;;;;;20.67;14.05;;;;;;;4.54;63.71;102148.34;5031050;28;20025;-76
2023/03/02 10:44:26;;;;;;;21.58;14.00;;;;;;;4.59;64.15;102149.56;5015780;28;20029;-74
2023/03/02 10:46:52;;;;;;;21.77;13.85;;;;;;;4.70;65.68;102144.97;5032861;28;20025;-74
2023/03/02 10:49:33;;;;;;;20.85;14.63;;;;;;;4.73;65.59;102139.31;5015275;28;20156;-73
2023/03/02 10:52:04;;;;;;;21.67;14.63;;;;;;;4.73;63.29;102140.13;5017960;28;20120;-76
2023/03/02 10:54:32;;;;;;;22.67;14.32;;;;;;;4.80;63.64;102140.34;5013639;28;20605;-75
2023/03/02 10:57:02;;;;;;;22.48;14.57;;;;;;;4.87;63.60;102141.41;5018061;28;20052;-75
2023/03/02 10:59:39;;;;;;;21.98;14.15;;;;;;;4.90;63.83;102140.28;5015519;28;20064;-72
2023/03/02 11:02:28;;;;;;;21.17;14.40;;;;;;;4.98;63.42;102137.63;4998236;28;20054;-75
2023/03/02 11:04:57;;;;;;;19.90;14.15;;;;;;;5.04;62.64;102142.41;5013308;28;20030;-76
2023/03/02 11:07:25;;;;;;;19.75;13.52;;;;;;;5.13;63.25;102138.78;5027227;28;20033;-74
2023/03/02 11:10:16;;;;;;;21.33;14.38;;;;;;;5.17;63.12;102131.25;5012797;28;20069;-75
2023/03/02 11:12:46;;;;;;;23.88;14.40;;;;;;;5.34;62.57;102137.56;5011888;28;20533;-74
2023/03/02 11:15:34;;;;;;;20.38;13.18;;;;;;;5.37;62.15;102125.66;5013080;28;20052;-75
2023/03/02 11:18:13;;;;;;;19.73;13.48;;;;;;;5.39;61.18;102129.88;5011757;28;20053;-74
2023/03/02 11:20:43;;;;;;;22.98;14.90;;;;;;;5.42;62.86;102131.38;5032949;28;20028;-76